createdAt,value
2022-12-23T00:00:36.070Z,3.850
2022-12-23T00:01:21.310Z,4.300
2022-12-23T00:02:26.067Z,3.900
2022-12-23T00:03:21.293Z,3.550
2022-12-23T00:04:33.606Z,3.800
2022-12-23T00:05:37.465Z,3.400
2022-12-23T00:06:24.568Z,3.300
2022-12-23T00:07:26.609Z,3.500
2022-12-23T00:08:33.624Z,3.200
2022-12-23T00:09:26.029Z,3.250
2022-12-23T00:10:25.708Z,3.300
2022-12-23T00:11:33.794Z,3.650
2022-12-23T00:12:22.463Z,2.900
2022-12-23T00:13:26.775Z,3.650
2022-12-23T00:14:27.826Z,3.450
2022-12-23T00:15:30.595Z,3.900
2022-12-23T00:16:24.720Z,3.800
2022-12-23T00:17:23.216Z,4.450
2022-12-23T00:18:31.517Z,3.400
2022-12-23T00:19:22.824Z,4.200
2022-12-23T00:20:22.580Z,4.000
2022-12-23T00:21:34.186Z,4.250
2022-12-23T00:22:23.013Z,4.300
2022-12-23T00:23:24.081Z,4.200
2022-12-23T00:24:22.996Z,4.000
2022-12-23T00:25:32.058Z,3.500
2022-12-23T00:26:26.949Z,3.800
2022-12-23T00:27:25.971Z,3.800
2022-12-23T00:28:33.702Z,3.900
2022-12-23T00:29:28.688Z,3.900
2022-12-23T00:30:21.851Z,3.600
2022-12-23T00:31:20.627Z,3.300
2022-12-23T00:32:30.746Z,3.600
2022-12-23T00:33:29.512Z,4.400
2022-12-23T00:34:22.947Z,3.900
2022-12-23T00:35:32.885Z,3.900
2022-12-23T00:36:32.629Z,4.250
2022-12-23T00:37:24.881Z,4.000
2022-12-23T00:38:21.414Z,3.700
2022-12-23T00:39:31.493Z,3.400
2022-12-23T00:40:26.691Z,3.400
2022-12-23T00:41:22.919Z,3.200
2022-12-23T00:42:44.428Z,3.650
2022-12-23T00:43:28.719Z,3.300
2022-12-23T00:44:28.522Z,3.500
2022-12-23T00:45:21.798Z,3.650
2022-12-23T00:46:30.685Z,3.500
2022-12-23T00:47:28.394Z,3.700
2022-12-23T00:48:22.733Z,3.300
2022-12-23T00:49:34.867Z,3.000
2022-12-23T00:50:31.369Z,3.500
2022-12-23T00:51:24.770Z,3.500
2022-12-23T00:52:20.796Z,3.500
2022-12-23T00:53:30.558Z,3.600
2022-12-23T00:54:27.765Z,3.550
2022-12-23T00:55:24.507Z,3.550
2022-12-23T00:56:32.567Z,3.400
2022-12-23T00:57:30.514Z,3.450
2022-12-23T00:58:25.363Z,3.200
2022-12-23T00:59:19.710Z,3.400
2022-12-23T01:00:23.728Z,3.450
2022-12-23T01:01:28.278Z,3.300
2022-12-23T01:02:23.336Z,3.650
2022-12-23T01:03:32.569Z,3.800
2022-12-23T01:04:30.409Z,3.900
2022-12-23T01:05:24.663Z,3.400
2022-12-23T01:06:24.463Z,3.450
2022-12-23T01:07:27.293Z,3.800
2022-12-23T01:08:20.278Z,3.900
2022-12-23T01:09:24.355Z,3.700
2022-12-23T01:10:34.201Z,4.000
2022-12-23T01:11:28.523Z,3.700
2022-12-23T01:12:26.206Z,3.500
2022-12-23T01:13:20.812Z,3.600
2022-12-23T01:14:32.087Z,3.550
2022-12-23T01:15:23.904Z,3.650
2022-12-23T01:16:22.859Z,3.750
2022-12-23T01:17:20.944Z,3.500
2022-12-23T01:18:32.182Z,3.500
2022-12-23T01:19:25.328Z,3.500
2022-12-23T01:20:21.926Z,3.500
2022-12-23T01:21:31.939Z,3.450
2022-12-23T01:22:29.921Z,3.350
2022-12-23T01:23:22.475Z,3.400
2022-12-23T01:24:23.875Z,3.650
2022-12-23T01:25:28.940Z,3.500
2022-12-23T01:26:26.559Z,3.350
2022-12-23T01:27:20.660Z,3.700
2022-12-23T01:28:30.892Z,3.800
2022-12-23T01:29:27.460Z,3.500
2022-12-23T01:30:27.567Z,3.900
2022-12-23T01:31:26.538Z,3.800
2022-12-23T01:32:30.533Z,3.700
2022-12-23T01:33:25.008Z,3.950
2022-12-23T01:34:22.630Z,3.300
2022-12-23T01:35:24.174Z,3.600
2022-12-23T01:36:26.974Z,3.700
2022-12-23T01:37:22.978Z,3.800
2022-12-23T01:38:25.801Z,3.600
2022-12-23T01:39:28.801Z,3.550
2022-12-23T01:40:24.238Z,3.700
2022-12-23T01:41:22.349Z,3.800
2022-12-23T01:42:24.969Z,3.450
2022-12-23T01:43:43.110Z,4.000
2022-12-23T01:44:25.084Z,3.700
2022-12-23T01:45:28.064Z,3.300
2022-12-23T01:46:21.120Z,3.400
2022-12-23T01:47:24.837Z,3.300
2022-12-23T01:48:21.972Z,3.700
2022-12-23T01:49:27.528Z,3.950
2022-12-23T01:50:26.868Z,3.800
2022-12-23T01:51:23.868Z,3.800
2022-12-23T01:52:28.926Z,3.750
2022-12-23T01:53:25.091Z,3.500
2022-12-23T01:54:25.230Z,3.600
2022-12-23T01:55:36.885Z,3.750
2022-12-23T01:56:44.732Z,3.600
2022-12-23T01:57:26.875Z,3.600
2022-12-23T01:58:24.695Z,3.950
2022-12-23T01:59:33.038Z,4.050
2022-12-23T02:00:29.486Z,3.800
2022-12-23T02:01:34.411Z,3.750
2022-12-23T02:02:21.360Z,3.600
2022-12-23T02:12:24.163Z,3.700
2022-12-23T02:13:34.824Z,3.900
2022-12-23T02:14:30.329Z,4.200
2022-12-23T02:18:41.833Z,3.900
2022-12-23T02:19:22.639Z,3.600
2022-12-23T02:20:35.233Z,3.850
2022-12-23T02:21:28.515Z,3.800
2022-12-23T02:22:22.994Z,4.050
2022-12-23T02:23:21.374Z,3.900
2022-12-23T02:24:20.916Z,3.750
2022-12-23T02:25:27.154Z,3.800
2022-12-23T02:26:22.557Z,3.700
2022-12-23T02:27:32.840Z,3.800
2022-12-23T02:28:30.859Z,3.350
2022-12-23T02:29:37.363Z,3.900
2022-12-23T02:30:20.793Z,3.600
2022-12-23T02:31:22.949Z,3.400
2022-12-23T02:32:26.971Z,3.500
2022-12-23T02:33:22.509Z,3.800
2022-12-23T02:34:35.331Z,3.600
2022-12-23T02:35:28.939Z,3.500
2022-12-23T02:36:24.451Z,3.850
2022-12-23T02:37:20.674Z,3.550
2022-12-23T02:38:26.698Z,3.550
2022-12-23T02:39:22.748Z,3.450
2022-12-23T02:40:36.790Z,3.600
2022-12-23T02:41:32.942Z,3.550
2022-12-23T02:42:28.889Z,3.400
2022-12-23T02:43:26.378Z,3.500
2022-12-23T02:44:22.250Z,3.800
2022-12-23T02:45:33.353Z,3.850
2022-12-23T02:46:22.470Z,4.000
2022-12-23T02:47:19.891Z,3.400
2022-12-23T02:48:32.740Z,3.750
2022-12-23T02:49:28.855Z,3.500
2022-12-23T02:50:26.315Z,3.900
2022-12-23T02:51:36.071Z,3.600
2022-12-23T02:52:33.399Z,3.600
2022-12-23T02:53:26.279Z,3.950
2022-12-23T02:54:24.173Z,3.800
2022-12-23T02:55:32.364Z,3.550
2022-12-23T02:56:29.986Z,3.700
2022-12-23T02:57:24.977Z,3.700
2022-12-23T02:58:24.929Z,3.350
2022-12-23T02:59:30.714Z,3.300
2022-12-23T03:00:26.770Z,3.100
2022-12-23T03:01:24.976Z,3.350
2022-12-23T03:02:21.944Z,3.550
2022-12-23T03:03:54.647Z,3.200
2022-12-23T03:04:21.355Z,3.550
2022-12-23T03:05:20.936Z,3.150
2022-12-23T03:06:30.713Z,3.550
2022-12-23T03:07:26.743Z,3.700
2022-12-23T03:08:24.500Z,3.300
2022-12-23T03:09:21.558Z,3.700
2022-12-23T03:10:28.586Z,3.550
2022-12-23T03:11:40.482Z,3.500
2022-12-23T03:12:31.421Z,2.900
2022-12-23T03:13:30.675Z,3.300
2022-12-23T03:14:28.578Z,3.600
2022-12-23T03:15:23.788Z,3.600
2022-12-23T03:16:26.295Z,3.800
2022-12-23T03:17:22.880Z,4.000
2022-12-23T03:18:25.372Z,3.800
2022-12-23T03:19:20.915Z,3.850
2022-12-23T03:20:19.557Z,4.100
2022-12-23T03:21:24.109Z,3.500
2022-12-23T03:22:22.770Z,3.150
2022-12-23T03:23:28.250Z,3.300
2022-12-23T03:24:23.058Z,3.800
2022-12-23T03:25:19.905Z,3.800
2022-12-23T03:26:20.828Z,3.900
2022-12-23T03:27:24.022Z,3.750
2022-12-23T03:28:27.898Z,3.750
2022-12-23T03:29:22.794Z,3.350
2022-12-23T03:30:32.905Z,3.700
2022-12-23T03:31:25.489Z,3.750
2022-12-23T03:32:19.977Z,3.750
2022-12-23T03:33:20.958Z,3.600
2022-12-23T03:34:27.402Z,3.850
2022-12-23T03:35:43.604Z,3.850
2022-12-23T03:36:38.749Z,3.800
2022-12-23T03:37:36.089Z,3.700
2022-12-23T03:38:20.714Z,3.700
2022-12-23T03:39:24.543Z,3.800
2022-12-23T03:40:21.775Z,3.400
2022-12-23T03:41:30.554Z,3.150
2022-12-23T03:42:42.394Z,3.250
2022-12-23T03:43:22.692Z,3.700
2022-12-23T03:44:31.471Z,3.300
2022-12-23T03:45:41.656Z,3.200
2022-12-23T03:46:26.237Z,3.450
2022-12-23T03:47:20.708Z,3.200
2022-12-23T03:48:32.095Z,3.150
2022-12-23T03:49:22.201Z,3.000
2022-12-23T03:50:24.449Z,3.500
2022-12-23T03:51:34.261Z,3.650
2022-12-23T03:52:28.812Z,3.600
2022-12-23T03:53:24.990Z,3.450
2022-12-23T03:54:23.180Z,3.150
2022-12-23T03:55:24.859Z,3.500
2022-12-23T03:56:22.145Z,3.500
2022-12-23T03:57:24.460Z,3.200
2022-12-23T03:58:34.030Z,3.500
2022-12-23T03:59:29.980Z,3.600
2022-12-23T04:00:25.026Z,3.750
2022-12-23T04:01:21.068Z,3.800
2022-12-23T04:02:21.536Z,3.400
2022-12-23T04:03:21.519Z,3.700
2022-12-23T04:04:23.115Z,3.400
2022-12-23T04:05:48.318Z,4.000
2022-12-23T04:06:25.942Z,4.000
2022-12-23T04:07:19.580Z,3.650
2022-12-23T04:08:22.896Z,3.900
2022-12-23T04:09:23.817Z,3.550
2022-12-23T04:10:24.744Z,3.650
2022-12-23T04:11:52.069Z,3.600
2022-12-23T04:12:31.870Z,3.600
2022-12-23T04:13:36.643Z,3.550
2022-12-23T04:14:24.954Z,3.700
2022-12-23T04:15:22.633Z,3.950
2022-12-23T04:16:32.730Z,3.800
2022-12-23T04:17:22.722Z,4.000
2022-12-23T04:18:22.854Z,3.900
2022-12-23T04:19:48.526Z,3.700
2022-12-23T04:20:40.500Z,3.500
2022-12-23T04:21:26.394Z,3.400
2022-12-23T04:22:22.530Z,3.450
2022-12-23T04:23:25.938Z,3.650
2022-12-23T04:24:27.293Z,3.100
2022-12-23T04:25:22.851Z,3.550
2022-12-23T04:26:48.372Z,3.700
2022-12-23T04:27:30.060Z,3.400
2022-12-23T04:28:25.321Z,3.800
2022-12-23T04:29:22.296Z,3.700
2022-12-23T04:30:34.656Z,3.700
2022-12-23T04:31:29.455Z,3.600
2022-12-23T04:32:23.891Z,3.650
2022-12-23T04:33:23.511Z,3.400
2022-12-23T04:34:22.801Z,3.200
2022-12-23T04:35:24.715Z,3.200
2022-12-23T04:36:20.869Z,3.450
2022-12-23T04:37:45.822Z,3.500
2022-12-23T04:38:34.109Z,3.050
2022-12-23T04:39:22.386Z,3.500
2022-12-23T04:40:30.225Z,3.550
2022-12-23T04:41:20.784Z,3.400
2022-12-23T04:42:35.799Z,3.750
2022-12-23T04:43:23.266Z,3.800
2022-12-23T04:44:31.012Z,3.200
2022-12-23T04:45:21.918Z,3.500
2022-12-23T04:46:23.353Z,3.600
2022-12-23T04:47:24.100Z,3.300
2022-12-23T04:48:26.700Z,3.500
2022-12-23T04:49:25.045Z,3.700
2022-12-23T04:50:20.742Z,3.900
2022-12-23T04:51:26.892Z,3.800
2022-12-23T04:52:40.425Z,3.800
2022-12-23T04:53:23.697Z,3.800
2022-12-23T04:54:20.698Z,3.650
2022-12-23T04:55:19.962Z,3.300
2022-12-23T04:56:22.498Z,3.900
2022-12-23T04:57:21.320Z,3.300
2022-12-23T04:58:33.380Z,3.550
2022-12-23T04:59:26.909Z,3.650
2022-12-23T05:00:40.237Z,3.300
2022-12-23T05:01:22.855Z,3.600
2022-12-23T05:02:24.395Z,3.700
2022-12-23T05:03:27.005Z,3.700
2022-12-23T05:04:21.513Z,3.500
2022-12-23T05:05:30.809Z,3.600
2022-12-23T05:06:28.431Z,3.700
2022-12-23T05:07:23.255Z,3.400
2022-12-23T05:08:29.008Z,3.500
2022-12-23T05:09:29.523Z,3.400
2022-12-23T05:10:21.402Z,3.450
2022-12-23T05:11:23.591Z,3.000
2022-12-23T05:12:22.435Z,3.400
2022-12-23T05:13:26.882Z,3.650
2022-12-23T05:14:22.923Z,3.600
2022-12-23T05:15:29.427Z,3.900
2022-12-23T05:16:29.911Z,3.600
2022-12-23T05:17:36.280Z,3.550
2022-12-23T05:18:21.041Z,3.300
2022-12-23T05:19:24.319Z,3.450
2022-12-23T05:20:28.257Z,3.700
2022-12-23T05:21:22.856Z,2.900
2022-12-23T05:22:32.646Z,3.400
2022-12-23T05:23:28.709Z,3.200
2022-12-23T05:24:24.810Z,3.600
2022-12-23T05:25:21.775Z,3.800
2022-12-23T05:26:27.011Z,3.350
2022-12-23T05:27:27.403Z,3.100
2022-12-23T05:28:22.969Z,3.550
2022-12-23T05:29:35.994Z,3.500
2022-12-23T05:30:21.815Z,3.200
2022-12-23T05:31:25.893Z,3.200
2022-12-23T05:32:20.855Z,3.050
2022-12-23T05:33:31.206Z,3.200
2022-12-23T05:34:22.474Z,3.450
2022-12-23T05:35:37.276Z,3.600
2022-12-23T05:36:26.725Z,3.300
2022-12-23T05:37:25.080Z,3.350
2022-12-23T05:38:24.619Z,3.900
2022-12-23T05:39:23.240Z,4.050
2022-12-23T05:40:23.687Z,4.250
2022-12-23T05:41:21.669Z,3.900
2022-12-23T05:42:19.754Z,3.800
2022-12-23T05:43:34.529Z,3.250
2022-12-23T05:44:29.052Z,3.200
2022-12-23T05:45:26.617Z,3.650
2022-12-23T05:46:26.229Z,3.600
2022-12-23T05:47:23.194Z,3.700
2022-12-23T05:48:19.683Z,3.700
2022-12-23T05:49:24.337Z,3.850
2022-12-23T05:50:32.935Z,3.600
2022-12-23T05:51:34.516Z,3.250
2022-12-23T05:52:24.899Z,3.700
2022-12-23T05:53:22.458Z,3.400
2022-12-23T05:54:32.585Z,3.200
2022-12-23T05:55:26.040Z,3.700
2022-12-23T05:56:23.171Z,3.250
2022-12-23T05:57:21.094Z,2.750
2022-12-23T05:58:20.037Z,2.650
2022-12-23T05:59:20.944Z,3.200
2022-12-23T06:00:22.253Z,3.300
2022-12-23T06:01:32.871Z,3.600
2022-12-23T06:02:28.392Z,3.600
2022-12-23T06:03:21.393Z,3.400
2022-12-23T06:04:25.592Z,3.450
2022-12-23T06:05:39.113Z,3.300
2022-12-23T06:06:25.038Z,3.900
2022-12-23T06:07:21.210Z,3.700
2022-12-23T06:08:31.981Z,2.900
2022-12-23T06:09:28.610Z,3.300
2022-12-23T06:10:25.873Z,3.500
2022-12-23T06:11:30.909Z,3.800
2022-12-23T06:12:22.660Z,3.900
2022-12-23T06:13:29.190Z,3.800
2022-12-23T06:14:35.954Z,4.200
2022-12-23T06:15:22.159Z,3.800
2022-12-23T06:16:28.782Z,3.850
2022-12-23T06:17:23.009Z,4.000
2022-12-23T06:18:23.649Z,3.750
2022-12-23T06:19:30.654Z,3.750
2022-12-23T06:20:21.190Z,3.800
2022-12-23T06:21:21.017Z,3.500
2022-12-23T06:22:31.934Z,4.100
2022-12-23T06:23:26.820Z,3.600
2022-12-23T06:24:25.102Z,3.100
2022-12-23T06:25:25.874Z,3.750
2022-12-23T06:26:31.404Z,3.800
2022-12-23T06:27:26.451Z,3.600
2022-12-23T06:28:21.052Z,3.150
2022-12-23T06:29:30.658Z,3.300
2022-12-23T06:30:28.318Z,3.550
2022-12-23T06:31:23.013Z,3.100
2022-12-23T06:32:25.174Z,3.150
2022-12-23T06:33:22.928Z,2.900
2022-12-23T06:34:24.930Z,2.500
2022-12-23T06:35:25.270Z,2.750
2022-12-23T06:36:31.197Z,3.200
2022-12-23T06:37:26.762Z,3.300
2022-12-23T06:38:23.945Z,3.250
2022-12-23T06:39:36.027Z,2.700
2022-12-23T06:40:29.369Z,3.400
2022-12-23T06:41:21.472Z,4.000
2022-12-23T06:42:36.872Z,4.900
2022-12-23T06:43:20.665Z,4.800
2022-12-23T06:44:28.665Z,4.950
2022-12-23T06:45:22.786Z,4.150
2022-12-23T06:46:23.259Z,3.800
2022-12-23T06:47:34.794Z,4.450
2022-12-23T06:48:24.694Z,4.300
2022-12-23T06:49:20.747Z,4.400
2022-12-23T06:50:23.218Z,4.000
2022-12-23T06:51:27.211Z,4.400
2022-12-23T06:52:24.372Z,4.200
2022-12-23T06:53:23.566Z,4.200
2022-12-23T06:54:29.823Z,3.100
2022-12-23T06:55:29.942Z,3.650
2022-12-23T06:56:21.491Z,3.400
2022-12-23T06:57:28.118Z,3.750
2022-12-23T06:58:20.329Z,3.800
2022-12-23T06:59:23.246Z,3.000
2022-12-23T07:00:23.753Z,3.500
2022-12-23T07:01:29.220Z,3.200
2022-12-23T07:02:25.365Z,3.700
2022-12-23T07:03:21.955Z,3.550
2022-12-23T07:04:22.140Z,3.350
2022-12-23T07:05:30.667Z,3.600
2022-12-23T07:06:23.186Z,3.700
2022-12-23T07:07:29.697Z,3.600
2022-12-23T07:08:30.755Z,3.900
2022-12-23T07:09:26.642Z,4.150
2022-12-23T07:10:29.121Z,3.900
2022-12-23T07:11:25.207Z,3.700
2022-12-23T07:12:29.834Z,3.600
2022-12-23T07:13:23.236Z,3.500
2022-12-23T07:14:34.452Z,4.000
2022-12-23T07:15:20.061Z,3.800
2022-12-23T07:16:26.277Z,2.950
2022-12-23T07:17:21.156Z,3.500
2022-12-23T07:18:27.640Z,3.500
2022-12-23T07:19:26.902Z,3.300
2022-12-23T07:20:23.213Z,3.000
2022-12-23T07:21:34.513Z,3.300
2022-12-23T07:22:23.610Z,3.500
2022-12-23T07:23:26.120Z,3.800
2022-12-23T07:24:21.404Z,3.850
2022-12-23T07:25:30.744Z,2.700
2022-12-23T07:26:23.244Z,2.550
2022-12-23T07:27:23.129Z,2.700
2022-12-23T07:28:23.267Z,2.900
2022-12-23T07:29:26.932Z,2.950
2022-12-23T07:30:24.710Z,3.350
2022-12-23T07:31:22.874Z,4.000
2022-12-23T07:32:32.837Z,3.450
2022-12-23T07:33:21.642Z,3.300
2022-12-23T07:34:19.755Z,3.550
2022-12-23T07:35:27.448Z,3.900
2022-12-23T07:36:23.203Z,3.400
2022-12-23T07:37:24.893Z,3.050
2022-12-23T07:38:21.098Z,3.000
2022-12-23T07:39:32.026Z,2.700
2022-12-23T07:40:25.620Z,3.350
2022-12-23T07:41:24.009Z,3.750
2022-12-23T07:42:47.559Z,2.800
2022-12-23T07:43:25.080Z,3.150
2022-12-23T07:44:24.896Z,3.300
2022-12-23T07:45:24.454Z,2.900
2022-12-23T07:46:33.327Z,4.300
2022-12-23T07:47:27.013Z,4.400
2022-12-23T07:48:24.112Z,4.550
2022-12-23T07:49:21.078Z,4.450
2022-12-23T07:50:29.313Z,4.000
2022-12-23T07:51:25.027Z,3.750
2022-12-23T07:52:20.863Z,4.200
2022-12-23T07:53:47.059Z,3.400
2022-12-23T07:54:30.826Z,3.700
2022-12-23T07:55:22.808Z,4.200
2022-12-23T07:56:23.607Z,4.350
2022-12-23T07:57:29.104Z,4.250
2022-12-23T07:58:26.259Z,3.900
2022-12-23T07:59:22.704Z,4.200
2022-12-23T08:00:34.392Z,4.300
2022-12-23T08:01:27.018Z,4.400
2022-12-23T08:02:21.798Z,4.150
2022-12-23T08:03:31.386Z,3.850
2022-12-23T08:04:22.779Z,4.250
2022-12-23T08:05:30.499Z,4.300
2022-12-23T08:06:21.395Z,4.100
2022-12-23T08:07:37.038Z,4.350
2022-12-23T08:08:27.808Z,4.000
2022-12-23T08:09:24.472Z,4.050
2022-12-23T08:10:50.422Z,4.200
2022-12-23T08:11:27.405Z,4.300
2022-12-23T08:12:25.224Z,4.100
2022-12-23T08:13:22.857Z,4.150
2022-12-23T08:14:21.157Z,3.800
2022-12-23T08:15:27.852Z,3.700
2022-12-23T08:16:28.019Z,4.150
2022-12-23T08:17:34.860Z,4.600
2022-12-23T08:18:30.715Z,4.800
2022-12-23T08:19:29.178Z,4.850
2022-12-23T08:20:20.705Z,4.300
2022-12-23T08:21:25.551Z,4.550
2022-12-23T08:22:28.071Z,5.000
2022-12-23T08:23:25.089Z,4.900
2022-12-23T08:24:21.242Z,5.000
2022-12-23T08:25:29.995Z,4.500
2022-12-23T08:26:27.122Z,4.800
2022-12-23T08:27:25.004Z,4.450
2022-12-23T08:28:30.947Z,4.700
2022-12-23T08:29:22.752Z,4.400
2022-12-23T08:30:24.820Z,4.300
2022-12-23T08:31:39.066Z,4.200
2022-12-23T08:32:29.502Z,4.400
2022-12-23T08:33:24.978Z,4.750
2022-12-23T08:34:23.657Z,4.100
2022-12-23T08:35:34.019Z,4.000
2022-12-23T08:36:33.576Z,3.950
2022-12-23T08:37:19.851Z,4.100
2022-12-23T08:38:21.745Z,3.900
2022-12-23T08:39:30.594Z,4.050
2022-12-23T08:40:25.165Z,3.700
2022-12-23T08:41:23.181Z,4.200
2022-12-23T08:42:22.025Z,4.050
2022-12-23T08:43:33.607Z,4.450
2022-12-23T08:44:23.979Z,4.000
2022-12-23T08:45:24.817Z,4.150
2022-12-23T08:46:30.511Z,4.000
2022-12-23T08:47:26.473Z,4.200
2022-12-23T08:48:22.320Z,4.100
2022-12-23T08:49:19.762Z,4.250
2022-12-23T08:50:26.731Z,4.700
2022-12-23T08:51:22.874Z,4.050
2022-12-23T08:52:21.262Z,4.250
2022-12-23T08:53:33.192Z,4.600
2022-12-23T08:54:26.541Z,4.200
2022-12-23T08:55:22.291Z,4.050
2022-12-23T08:56:22.724Z,4.400
2022-12-23T08:57:22.006Z,4.400
2022-12-23T08:58:23.249Z,3.900
2022-12-23T08:59:25.758Z,3.900
2022-12-23T09:00:29.257Z,3.700
2022-12-23T09:01:27.405Z,3.800
2022-12-23T09:02:36.128Z,3.400
2022-12-23T09:03:25.990Z,3.700
2022-12-23T09:04:30.087Z,3.600
2022-12-23T09:05:23.325Z,3.850
2022-12-23T09:06:30.627Z,4.000
2022-12-23T09:07:22.845Z,3.850
2022-12-23T09:08:55.864Z,3.700
2022-12-23T09:09:20.987Z,4.000
2022-12-23T09:10:34.823Z,4.100
2022-12-23T09:11:27.251Z,3.600
2022-12-23T09:12:24.392Z,4.000
2022-12-23T09:13:37.524Z,4.350
2022-12-23T09:14:23.869Z,4.300
2022-12-23T09:15:21.715Z,4.300
2022-12-23T09:16:21.506Z,4.050
2022-12-23T09:17:32.588Z,4.100
2022-12-23T09:18:28.724Z,4.400
2022-12-23T09:19:23.245Z,4.250
2022-12-23T09:20:21.689Z,4.100
2022-12-23T09:21:33.626Z,4.200
2022-12-23T09:22:25.093Z,4.100
2022-12-23T09:23:35.100Z,3.700
2022-12-23T09:24:36.465Z,4.100
2022-12-23T09:25:22.028Z,4.400
2022-12-23T09:26:22.699Z,4.100
2022-12-23T09:27:23.898Z,4.350
2022-12-23T09:28:35.419Z,4.200
2022-12-23T09:29:30.397Z,4.050
2022-12-23T09:30:21.816Z,3.900
2022-12-23T09:31:39.780Z,4.000
2022-12-23T09:32:27.561Z,3.600
2022-12-23T09:33:23.124Z,4.200
2022-12-23T09:34:28.844Z,4.000
2022-12-23T09:35:21.701Z,4.150
2022-12-23T09:36:19.798Z,4.200
2022-12-23T09:37:22.286Z,3.900
2022-12-23T09:38:34.230Z,4.100
2022-12-23T09:39:28.081Z,4.400
2022-12-23T09:40:24.093Z,4.400
2022-12-23T09:41:33.162Z,3.650
2022-12-23T09:42:24.678Z,4.000
2022-12-23T09:43:24.618Z,4.500
2022-12-23T09:44:21.101Z,4.250
2022-12-23T09:45:22.991Z,4.550
2022-12-23T09:46:27.962Z,4.400
2022-12-23T09:47:25.062Z,4.350
2022-12-23T09:48:37.380Z,4.350
2022-12-23T09:49:29.411Z,4.500
2022-12-23T09:50:22.976Z,4.550
2022-12-23T09:51:34.118Z,4.500
2022-12-23T09:52:28.950Z,4.550
2022-12-23T09:53:20.584Z,4.450
2022-12-23T09:54:23.065Z,4.500
2022-12-23T09:55:36.982Z,4.800
2022-12-23T09:56:32.957Z,4.600
2022-12-23T09:57:27.789Z,4.550
2022-12-23T09:58:20.926Z,4.650
2022-12-23T09:59:51.825Z,4.900
2022-12-23T10:00:28.671Z,4.850
2022-12-23T10:01:24.061Z,4.600
2022-12-23T10:02:33.553Z,4.700
2022-12-23T10:03:38.341Z,4.200
2022-12-23T10:04:32.328Z,4.450
2022-12-23T10:05:24.673Z,4.600
2022-12-23T10:06:31.830Z,4.700
2022-12-23T10:07:28.863Z,4.800
2022-12-23T10:08:24.577Z,4.500
2022-12-23T10:09:34.631Z,4.500
2022-12-23T10:10:29.234Z,4.300
2022-12-23T10:11:23.750Z,4.550
2022-12-23T10:12:27.752Z,4.500
2022-12-23T10:13:20.697Z,4.800
2022-12-23T10:14:27.227Z,4.650
2022-12-23T10:15:26.152Z,4.700
2022-12-23T10:16:33.111Z,4.800
2022-12-23T10:17:30.339Z,4.500
2022-12-23T10:18:25.276Z,4.600
2022-12-23T10:19:27.043Z,4.700
2022-12-23T10:20:23.752Z,4.200
2022-12-23T10:21:27.100Z,3.950
2022-12-23T10:22:20.660Z,4.500
2022-12-23T10:23:19.876Z,4.400
2022-12-23T10:24:32.379Z,4.400
2022-12-23T10:25:25.162Z,4.200
2022-12-23T10:26:32.710Z,4.650
2022-12-23T10:27:27.892Z,4.300
2022-12-23T10:28:21.989Z,4.250
2022-12-23T10:29:23.292Z,4.400
2022-12-23T10:30:56.841Z,4.300
2022-12-23T10:31:39.669Z,4.000
2022-12-23T10:32:48.128Z,4.400
2022-12-23T10:33:22.279Z,4.200
2022-12-23T10:34:38.240Z,4.100
2022-12-23T10:35:25.002Z,4.000
2022-12-23T10:36:52.863Z,4.400
2022-12-23T10:37:27.745Z,4.050
2022-12-23T10:38:24.758Z,4.250
2022-12-23T10:39:22.565Z,3.900
2022-12-23T10:40:37.800Z,3.800
2022-12-23T10:41:22.754Z,3.800
2022-12-23T10:42:32.863Z,4.150
2022-12-23T10:43:22.062Z,4.100
2022-12-23T10:44:28.762Z,4.300
2022-12-23T10:45:27.039Z,4.000
2022-12-23T10:46:22.571Z,3.950
2022-12-23T10:47:21.174Z,4.300
2022-12-23T10:48:25.642Z,4.200
2022-12-23T10:49:27.082Z,4.450
2022-12-23T10:50:20.684Z,4.300
2022-12-23T10:51:32.333Z,4.450
2022-12-23T10:52:33.621Z,4.300
2022-12-23T10:53:26.472Z,4.550
2022-12-23T10:54:19.486Z,4.600
2022-12-23T10:55:32.961Z,4.400
2022-12-23T10:56:26.223Z,4.250
2022-12-23T10:57:34.018Z,4.500
2022-12-23T10:58:24.443Z,3.800
2022-12-23T10:59:22.046Z,4.200
2022-12-23T11:00:24.910Z,4.100
2022-12-23T11:01:26.998Z,4.200
2022-12-23T11:02:33.753Z,4.200
2022-12-23T11:03:29.812Z,4.150
2022-12-23T11:04:23.702Z,4.150
2022-12-23T11:05:26.938Z,3.900
2022-12-23T11:06:21.286Z,4.350
2022-12-23T11:07:57.129Z,4.400
2022-12-23T11:08:20.993Z,5.100
2022-12-23T11:09:22.225Z,4.950
2022-12-23T11:10:21.265Z,4.800
2022-12-23T11:11:39.131Z,4.350
2022-12-23T11:12:37.290Z,4.300
2022-12-23T11:13:29.606Z,4.150
2022-12-23T11:14:25.351Z,4.400
2022-12-23T11:15:20.926Z,4.500
2022-12-23T11:16:25.541Z,4.100
2022-12-23T11:17:23.528Z,4.250
2022-12-23T11:18:23.460Z,4.600
2022-12-23T11:19:35.528Z,4.250
2022-12-23T11:20:34.203Z,3.950
2022-12-23T11:21:20.608Z,4.300
2022-12-23T11:22:21.423Z,4.550
2022-12-23T11:23:31.220Z,4.350
2022-12-23T11:24:27.251Z,4.000
2022-12-23T11:25:23.504Z,4.700
2022-12-23T11:26:33.044Z,4.650
2022-12-23T11:27:35.154Z,5.100
2022-12-23T11:28:21.081Z,5.000
2022-12-23T11:29:22.417Z,4.850
2022-12-23T11:30:35.837Z,4.800
2022-12-23T11:31:28.735Z,4.550
2022-12-23T11:32:20.019Z,4.000
2022-12-23T11:33:34.974Z,4.450
2022-12-23T11:34:29.098Z,4.900
2022-12-23T11:35:20.527Z,5.000
2022-12-23T11:36:21.953Z,4.900
2022-12-23T11:37:32.599Z,4.800
2022-12-23T11:38:27.166Z,4.650
2022-12-23T11:39:23.809Z,5.000
2022-12-23T11:40:34.844Z,4.850
2022-12-23T11:41:25.404Z,4.700
2022-12-23T11:42:27.950Z,5.350
2022-12-23T11:43:21.276Z,5.000
2022-12-23T11:44:43.855Z,5.150
2022-12-23T11:45:27.369Z,5.200
2022-12-23T11:46:23.253Z,5.450
2022-12-23T11:47:22.859Z,5.400
2022-12-23T11:48:30.890Z,5.350
2022-12-23T11:49:25.170Z,5.200
2022-12-23T11:50:21.198Z,5.350
2022-12-23T11:51:23.097Z,5.200
2022-12-23T11:52:24.345Z,5.000
2022-12-23T11:53:24.757Z,5.000
2022-12-23T11:54:26.880Z,4.950
2022-12-23T11:55:28.965Z,4.950
2022-12-23T11:56:27.074Z,4.500
2022-12-23T11:57:22.055Z,5.050
2022-12-23T11:58:27.927Z,5.100
2022-12-23T11:59:21.348Z,4.950
2022-12-23T12:00:23.037Z,4.700
2022-12-23T12:01:33.316Z,4.700
2022-12-23T12:02:23.829Z,4.850
2022-12-23T12:03:25.134Z,4.850
2022-12-23T12:04:23.287Z,5.000
2022-12-23T12:05:34.711Z,4.800
2022-12-23T12:06:24.193Z,4.300
2022-12-23T12:07:23.056Z,4.850
2022-12-23T12:08:35.669Z,4.550
2022-12-23T12:09:29.517Z,4.450
2022-12-23T12:10:20.230Z,4.500
2022-12-23T12:11:21.159Z,4.500
2022-12-23T12:12:34.964Z,4.650
2022-12-23T12:13:29.594Z,4.550
2022-12-23T12:14:22.951Z,4.500
2022-12-23T12:15:21.221Z,4.700
2022-12-23T12:16:34.634Z,4.550
2022-12-23T12:17:24.407Z,4.900
2022-12-23T12:18:22.023Z,4.400
2022-12-23T12:19:31.266Z,4.600
2022-12-23T12:20:21.551Z,4.600
2022-12-23T12:21:27.932Z,4.750
2022-12-23T12:22:23.939Z,4.800
2022-12-23T12:23:37.745Z,4.550
2022-12-23T12:24:25.407Z,4.800
2022-12-23T12:25:22.529Z,4.800
2022-12-23T12:26:26.780Z,4.900
2022-12-23T12:27:27.268Z,4.700
2022-12-23T12:28:28.685Z,4.600
2022-12-23T12:29:23.531Z,5.150
2022-12-23T12:30:29.326Z,4.850
2022-12-23T12:31:25.697Z,4.600
2022-12-23T12:32:21.377Z,4.650
2022-12-23T12:33:21.792Z,4.750
2022-12-23T12:34:28.915Z,4.800
2022-12-23T12:35:23.522Z,4.600
2022-12-23T12:36:25.853Z,4.700
2022-12-23T12:37:24.002Z,4.600
2022-12-23T12:38:25.927Z,4.400
2022-12-23T12:39:21.267Z,4.850
2022-12-23T12:40:24.916Z,4.600
2022-12-23T12:41:28.468Z,4.550
2022-12-23T12:42:39.436Z,4.350
2022-12-23T12:43:29.859Z,4.600
2022-12-23T12:44:22.841Z,4.650
2022-12-23T12:45:25.242Z,4.900
2022-12-23T12:46:21.454Z,4.850
2022-12-23T12:47:52.720Z,4.200
2022-12-23T12:48:42.306Z,4.600
2022-12-23T12:49:23.751Z,4.400
2022-12-23T12:50:37.794Z,4.550
2022-12-23T12:51:24.296Z,4.500
2022-12-23T12:52:20.509Z,4.350
2022-12-23T12:53:21.447Z,4.600
2022-12-23T12:54:25.254Z,4.150
2022-12-23T12:55:27.856Z,3.850
2022-12-23T12:56:23.795Z,3.900
2022-12-23T12:57:39.526Z,4.350
2022-12-23T12:58:25.654Z,4.050
2022-12-23T12:59:24.844Z,4.100
2022-12-23T13:00:22.721Z,3.950
2022-12-23T13:01:35.771Z,4.300
2022-12-23T13:02:22.323Z,3.850
2022-12-23T13:03:23.155Z,4.250
2022-12-23T13:04:41.876Z,3.800